Time;durP1;ratioP1;P1;durP2;ratioP2;P2;SDS_P1;SDS_P2;PMS_P1;PMS_P2;Temp;Humidity;BMP_temperature;BMP_pressure;BME280_temperature;BME280_humidity;BME280_pressure;Samples;Min_cycle;Max_cycle;Signal;HPM_P1;HPM_P2
2021/04/24 00:00:18;;;;;;;50.55;23.77;;;;;;;4.18;64.90;97819.44;1805430;78;27552;-81
2021/04/24 00:02:47;;;;;;;52.03;22.48;;;;;;;4.16;64.82;97818.77;1810147;78;25832;-81
2021/04/24 00:05:34;;;;;;;51.83;25.40;;;;;;;4.17;64.74;97824.45;1792601;78;25364;-81
2021/04/24 00:08:05;;;;;;;52.95;24.02;;;;;;;4.19;64.60;97830.47;1802049;78;26459;-80
2021/04/24 00:10:36;;;;;;;41.23;20.62;;;;;;;4.22;64.46;97829.32;1776896;78;25688;-81
2021/04/24 00:13:06;;;;;;;45.48;20.62;;;;;;;4.26;64.45;97827.48;1775554;78;27481;-81
2021/04/24 00:15:34;;;;;;;33.08;16.93;;;;;;;4.25;64.52;97820.45;1793097;78;26260;-81
2021/04/24 00:18:03;;;;;;;36.80;17.42;;;;;;;4.26;64.04;97827.98;1807346;78;25817;-81
2021/04/24 00:20:30;;;;;;;31.10;16.05;;;;;;;4.28;63.84;97829.99;1802280;78;26080;-81
2021/04/24 00:22:59;;;;;;;35.38;16.50;;;;;;;4.30;63.48;97830.67;1795548;78;26286;-81
2021/04/24 00:25:26;;;;;;;31.25;15.88;;;;;;;4.30;63.44;97822.66;1817762;78;27499;-81
2021/04/24 00:27:54;;;;;;;29.98;15.90;;;;;;;4.29;63.37;97819.64;1802798;78;25647;-81
2021/04/24 00:30:22;;;;;;;32.83;15.88;;;;;;;4.29;63.18;97826.33;1783870;78;25783;-81
2021/04/24 00:32:49;;;;;;;43.20;16.48;;;;;;;4.33;63.32;97821.01;1783265;78;25775;-80
2021/04/24 00:35:19;;;;;;;35.98;17.50;;;;;;;4.33;63.36;97822.34;1775628;78;25695;-81
2021/04/24 00:37:48;;;;;;;38.50;15.68;;;;;;;4.32;63.39;97823.34;1816815;78;28525;-80
2021/04/24 00:40:17;;;;;;;32.42;15.70;;;;;;;4.26;63.23;97819.96;1818965;78;25789;-81
2021/04/24 00:42:47;;;;;;;29.10;15.70;;;;;;;4.30;63.10;97828.00;1804485;78;25744;-81
2021/04/24 00:45:17;;;;;;;31.12;14.58;;;;;;;4.29;63.18;97822.31;1803001;78;26371;-80
2021/04/24 00:47:45;;;;;;;29.20;14.40;;;;;;;4.26;63.08;97821.30;1783107;78;25815;-80
2021/04/24 00:50:16;;;;;;;27.75;14.68;;;;;;;4.27;63.16;97828.32;1810445;78;27527;-81
2021/04/24 00:52:44;;;;;;;30.90;15.90;;;;;;;4.28;63.09;97825.98;1805860;78;25837;-80
2021/04/24 00:55:12;;;;;;;34.75;17.12;;;;;;;4.33;63.04;97820.51;1791530;78;25795;-81
2021/04/24 00:57:41;;;;;;;34.05;16.75;;;;;;;4.36;63.13;97819.32;1776410;78;25902;-81
2021/04/24 01:00:12;;;;;;;33.53;16.97;;;;;;;4.37;63.07;97825.50;1802953;78;25765;-81
2021/04/24 01:02:40;;;;;;;36.93;17.37;;;;;;;4.35;63.08;97822.98;1814345;78;27291;-81
2021/04/24 01:05:15;;;;;;;31.80;17.05;;;;;;;4.38;63.25;97824.52;1805671;78;25686;-80
2021/04/24 01:07:43;;;;;;;40.92;18.45;;;;;;;4.35;63.14;97821.16;1794106;78;25768;-81
2021/04/24 01:10:12;;;;;;;38.17;18.40;;;;;;;4.34;63.30;97824.02;1804736;78;25502;-80
2021/04/24 01:12:41;;;;;;;34.55;17.20;;;;;;;4.34;63.60;97823.52;1806243;78;25660;-81
2021/04/24 01:15:11;;;;;;;30.90;14.60;;;;;;;4.35;63.59;97816.31;1806229;78;28436;-81
2021/04/24 01:17:40;;;;;;;34.73;15.32;;;;;;;4.28;63.27;97813.96;1798520;78;25730;-81
2021/04/24 01:20:09;;;;;;;27.50;13.78;;;;;;;4.30;63.58;97816.81;1802188;78;25687;-80
2021/04/24 01:22:36;;;;;;;37.55;16.60;;;;;;;4.31;63.77;97817.66;1802119;78;25761;-81
2021/04/24 01:25:10;;;;;;;32.42;16.25;;;;;;;4.33;63.98;97811.66;1801163;78;25806;-81
2021/04/24 01:27:37;;;;;;;36.90;17.52;;;;;;;4.31;64.21;97824.34;1806220;78;28449;-81
2021/04/24 01:30:09;;;;;;;31.68;16.15;;;;;;;4.29;64.05;97818.31;1806056;78;26346;-81
2021/04/24 01:32:37;;;;;;;31.00;16.10;;;;;;;4.28;63.97;97808.62;1793724;78;25779;-81
2021/04/24 01:35:13;;;;;;;28.98;15.40;;;;;;;4.28;64.20;97809.95;1792653;78;26523;-81
2021/04/24 01:37:40;;;;;;;27.30;15.40;;;;;;;4.27;64.23;97806.94;1799287;77;25710;-81
2021/04/24 01:40:11;;;;;;;32.93;17.37;;;;;;;4.28;64.43;97801.94;1813207;78;27422;-81
2021/04/24 01:42:39;;;;;;;41.00;18.40;;;;;;;4.27;64.58;97802.94;1806764;78;25718;-81
2021/04/24 01:45:10;;;;;;;60.20;22.58;;;;;;;4.26;64.58;97795.91;1798907;78;25774;-82
2021/04/24 01:47:41;;;;;;;34.85;16.32;;;;;;;4.28;64.52;97793.92;1806310;78;26506;-81
2021/04/24 01:50:15;;;;;;;35.13;17.17;;;;;;;4.28;64.19;97789.41;1806288;78;25611;-81
2021/04/24 01:52:45;;;;;;;38.78;17.80;;;;;;;4.31;64.08;97791.77;1794533;78;27498;-81
2021/04/24 01:55:20;;;;;;;36.90;17.35;;;;;;;4.34;63.87;97791.95;1792536;78;25678;-81
2021/04/24 01:57:49;;;;;;;33.67;17.45;;;;;;;4.33;63.84;97787.60;1803320;78;25666;-81
2021/04/24 02:00:25;;;;;;;32.38;14.18;;;;;;;4.31;63.81;97786.42;1806040;78;26333;-81
2021/04/24 02:02:54;;;;;;;34.58;19.52;;;;;;;4.33;63.58;97784.92;1795476;78;25916;-81
2021/04/24 02:05:22;;;;;;;38.42;19.80;;;;;;;4.31;63.49;97786.92;1792527;78;27492;-81
2021/04/24 02:08:03;;;;;;;45.50;21.77;;;;;;;4.30;63.63;97795.94;1802716;78;25838;-81
2021/04/24 02:10:31;;;;;;;42.90;20.45;;;;;;;4.32;63.72;97791.27;1823384;77;26344;-81
2021/04/24 02:13:03;;;;;;;33.95;16.55;;;;;;;4.30;63.82;97779.40;1820038;77;25650;-81
2021/04/24 02:15:30;;;;;;;28.17;15.83;;;;;;;4.31;63.65;97782.91;1768188;78;25795;-81
2021/04/24 02:17:58;;;;;;;29.77;15.30;;;;;;;4.30;63.74;97779.90;1784999;78;27434;-81
2021/04/24 02:20:27;;;;;;;30.05;16.05;;;;;;;4.29;63.86;97776.89;1810349;78;25848;-81
2021/04/24 02:22:55;;;;;;;31.85;16.20;;;;;;;4.27;63.86;97776.20;1781860;78;25730;-81
2021/04/24 02:25:23;;;;;;;33.23;14.87;;;;;;;4.26;63.90;97777.20;1767939;78;25822;-81
2021/04/24 02:27:51;;;;;;;39.35;19.15;;;;;;;4.25;63.99;97779.54;1776854;78;25725;-81
2021/04/24 02:30:21;;;;;;;37.67;19.17;;;;;;;4.23;63.98;97776.19;1775887;78;27483;-81
2021/04/24 02:32:49;;;;;;;29.00;16.30;;;;;;;4.23;63.99;97773.02;1801491;78;25770;-81
2021/04/24 02:35:25;;;;;;;29.37;15.48;;;;;;;4.26;64.07;97773.20;1803607;78;25715;-81
2021/04/24 02:37:52;;;;;;;31.80;14.28;;;;;;;4.27;64.08;97769.53;1774815;78;25743;-81
2021/04/24 02:40:22;;;;;;;29.50;13.65;;;;;;;4.28;64.09;97767.19;1792429;78;25908;-81
2021/04/24 02:42:49;;;;;;;23.92;12.68;;;;;;;4.31;63.94;97767.71;1792470;78;28434;-81
2021/04/24 02:45:18;;;;;;;26.82;13.13;;;;;;;4.34;63.95;97766.06;1779147;78;26129;-81
2021/04/24 02:47:46;;;;;;;28.75;15.48;;;;;;;4.37;63.69;97764.88;1771650;78;25700;-81
2021/04/24 02:50:17;;;;;;;32.25;19.00;;;;;;;4.37;63.83;97756.02;1793214;78;26596;-81
2021/04/24 02:52:46;;;;;;;32.65;17.73;;;;;;;4.36;63.92;97760.52;1772380;78;25952;-81
2021/04/24 02:55:16;;;;;;;34.83;16.77;;;;;;;4.36;63.99;97763.19;1791464;77;27571;-81
2021/04/24 02:57:44;;;;;;;38.83;17.62;;;;;;;4.35;64.12;97770.88;1810205;78;26344;-81
2021/04/24 03:00:16;;;;;;;27.42;14.87;;;;;;;4.31;64.32;97766.88;1814088;78;25765;-81
2021/04/24 03:02:43;;;;;;;26.70;13.72;;;;;;;4.21;64.15;97767.02;1811586;78;25845;-81
2021/04/24 03:05:17;;;;;;;27.40;13.62;;;;;;;4.21;64.11;97758.17;1792449;78;25305;-81
2021/04/24 03:07:45;;;;;;;25.37;13.03;;;;;;;4.24;64.27;97763.16;1790556;78;28495;-80
2021/04/24 03:10:14;;;;;;;26.17;12.58;;;;;;;4.29;64.30;97757.69;1785321;78;25675;-80
2021/04/24 03:12:42;;;;;;;24.25;14.03;;;;;;;4.27;64.29;97758.84;1801160;78;25811;-81
2021/04/24 03:15:09;;;;;;;27.13;13.15;;;;;;;4.28;64.51;97755.17;1806942;78;25663;-81
2021/04/24 03:17:37;;;;;;;32.98;14.40;;;;;;;4.29;64.61;97754.17;1792997;78;25769;-81
2021/04/24 03:20:10;;;;;;;27.60;13.08;;;;;;;4.31;64.53;97753.02;1808958;78;27551;-81
2021/04/24 03:22:38;;;;;;;25.17;12.98;;;;;;;4.35;64.50;97750.83;1798020;78;25798;-81
2021/04/24 03:25:09;;;;;;;21.12;12.10;;;;;;;4.35;64.31;97756.17;1806949;78;25658;-81
2021/04/24 03:27:37;;;;;;;21.95;12.18;;;;;;;4.37;64.34;97750.17;1800394;78;26413;-81
2021/04/24 03:30:07;;;;;;;24.20;12.18;;;;;;;4.37;64.21;97747.50;1792950;78;25916;-80
2021/04/24 03:32:35;;;;;;;22.93;10.98;;;;;;;4.37;64.19;97748.00;1792940;78;27537;-81
2021/04/24 03:35:03;;;;;;;15.60;9.03;;;;;;;4.39;64.08;97748.17;1792689;78;25721;-80
2021/04/24 03:37:31;;;;;;;17.20;8.58;;;;;;;4.42;63.73;97749.69;1792946;78;25739;-80
2021/04/24 03:39:58;;;;;;;20.50;9.10;;;;;;;4.36;63.41;97745.82;1792847;78;25722;-81
2021/04/24 03:42:26;;;;;;;18.62;8.18;;;;;;;4.34;63.32;97750.02;1793005;78;25854;-80
2021/04/24 03:44:53;;;;;;;17.30;9.23;;;;;;;4.30;63.14;97742.48;1792897;78;28564;-80
2021/04/24 03:47:20;;;;;;;21.23;9.35;;;;;;;4.28;62.96;97749.33;1792755;78;26157;-80
2021/04/24 03:49:47;;;;;;;23.45;9.33;;;;;;;4.27;62.95;97754.33;1815756;77;25718;-81
2021/04/24 03:52:15;;;;;;;20.00;8.70;;;;;;;4.28;62.81;97757.34;1792874;78;25695;-80
2021/04/24 03:54:42;;;;;;;17.48;8.93;;;;;;;4.28;62.67;97759.17;1793639;78;25787;-81
2021/04/24 03:57:09;;;;;;;23.25;9.30;;;;;;;4.32;62.73;97760.53;1816261;78;27584;-81
2021/04/24 03:59:37;;;;;;;22.60;9.70;;;;;;;4.34;62.77;97766.06;1792878;78;25317;-81
2021/04/24 04:02:04;;;;;;;22.15;9.95;;;;;;;4.40;62.67;97765.89;1792849;78;25858;-81
2021/04/24 04:04:31;;;;;;;20.08;9.55;;;;;;;4.44;62.47;97767.24;1794965;78;25745;-82
2021/04/24 04:06:58;;;;;;;19.42;9.30;;;;;;;4.46;62.42;97773.77;1813163;78;25806;-81
2021/04/24 04:09:26;;;;;;;27.25;11.50;;;;;;;4.47;62.39;97770.09;1807161;78;28484;-81
2021/04/24 04:11:53;;;;;;;27.25;13.88;;;;;;;4.44;62.33;97772.59;1788245;78;25672;-81
2021/04/24 04:14:20;;;;;;;24.77;11.30;;;;;;;4.45;62.30;97767.58;1793221;78;25759;-81
2021/04/24 04:16:48;;;;;;;19.45;9.83;;;;;;;4.49;62.33;97776.09;1775583;78;25800;-81
2021/04/24 04:19:15;;;;;;;23.92;11.68;;;;;;;4.49;62.55;97776.09;1787832;78;25737;-81
2021/04/24 04:21:43;;;;;;;18.73;10.70;;;;;;;4.47;62.59;97781.59;1819090;77;28498;-81
2021/04/24 04:24:11;;;;;;;22.98;10.70;;;;;;;4.52;62.69;97787.30;1815585;78;25754;-81
2021/04/24 04:26:38;;;;;;;18.52;9.68;;;;;;;4.50;62.78;97785.28;1788822;78;26223;-81
2021/04/24 04:29:05;;;;;;;23.07;10.23;;;;;;;4.49;62.97;97779.59;1775578;78;25676;-80
2021/04/24 04:31:33;;;;;;;20.80;10.10;;;;;;;4.46;62.91;97787.13;1775676;78;25731;-80
2021/04/24 04:36:25;;;;;;;23.18;11.28;;;;;;;4.60;62.84;97791.31;1882729;74;25537;-81
2021/04/24 04:38:52;;;;;;;21.77;10.70;;;;;;;4.59;63.04;97797.66;1852820;75;25662;-81
2021/04/24 04:41:19;;;;;;;25.20;11.35;;;;;;;4.56;63.15;97796.67;1844170;77;27553;-81
2021/04/24 04:43:47;;;;;;;25.70;10.68;;;;;;;4.58;63.30;97789.33;1825284;75;25630;-81
2021/04/24 04:46:14;;;;;;;21.27;10.80;;;;;;;4.65;62.94;97806.37;1839833;75;25727;-81
2021/04/24 04:48:41;;;;;;;22.32;11.78;;;;;;;4.66;63.15;97801.37;1824232;77;25707;-81
2021/04/24 04:51:09;;;;;;;17.60;10.23;;;;;;;4.70;63.12;97806.73;1849644;77;26123;-81
2021/04/24 04:53:36;;;;;;;23.60;11.30;;;;;;;4.74;63.17;97800.53;1855027;75;28555;-81
2021/04/24 04:56:03;;;;;;;26.25;11.95;;;;;;;4.79;63.26;97808.07;1833378;76;25937;-80
2021/04/24 04:58:30;;;;;;;20.60;10.82;;;;;;;4.82;63.17;97812.59;1822281;75;25697;-81
2021/04/24 05:00:58;;;;;;;22.48;13.03;;;;;;;4.88;63.00;97818.61;1857472;75;26173;-81
2021/04/24 05:03:25;;;;;;;28.45;12.93;;;;;;;4.90;62.88;97815.77;1851326;75;25820;-81
2021/04/24 05:05:52;;;;;;;25.35;12.25;;;;;;;4.94;62.92;97814.45;1852305;75;27542;-80
2021/04/24 05:08:19;;;;;;;23.42;11.20;;;;;;;4.97;62.91;97820.28;1857335;75;25776;-80
2021/04/24 05:10:47;;;;;;;25.85;10.78;;;;;;;5.04;62.77;97825.32;1844343;75;25819;-80
2021/04/24 05:13:14;;;;;;;27.65;12.25;;;;;;;5.09;62.61;97830.16;1839240;75;25767;-80
2021/04/24 05:15:41;;;;;;;19.73;9.25;;;;;;;5.15;62.58;97834.86;1815853;77;25921;-80
2021/04/24 05:18:09;;;;;;;20.77;9.93;;;;;;;5.20;62.59;97835.17;1811915;77;27495;-80
2021/04/24 05:20:36;;;;;;;24.18;10.88;;;;;;;5.20;62.74;97841.02;1842346;75;25780;-80
2021/04/24 05:23:04;;;;;;;23.20;10.25;;;;;;;5.23;62.72;97842.88;1849803;75;25852;-80
2021/04/24 05:25:31;;;;;;;24.67;9.63;;;;;;;5.26;62.37;97844.39;1847301;75;25807;-80
2021/04/24 05:27:58;;;;;;;23.20;9.03;;;;;;;5.31;62.30;97836.17;1812992;77;25768;-80
2021/04/24 05:30:26;;;;;;;22.10;8.68;;;;;;;5.36;62.28;97840.53;1808893;78;28516;-80
2021/04/24 05:32:53;;;;;;;18.42;8.73;;;;;;;5.43;62.47;97836.70;1787460;77;25328;-77
2021/04/24 05:35:20;;;;;;;17.70;8.53;;;;;;;5.53;62.39;97839.19;1781253;79;26271;-80
2021/04/24 05:37:47;;;;;;;25.40;9.40;;;;;;;5.61;62.10;97838.67;1764931;79;25776;-81
2021/04/24 05:40:15;;;;;;;21.15;10.13;;;;;;;5.68;62.01;97832.12;1786422;79;25754;-80
2021/04/24 05:42:43;;;;;;;22.85;11.08;;;;;;;5.77;61.70;97848.03;1785826;79;28415;-80
2021/04/24 05:45:13;;;;;;;23.47;11.70;;;;;;;5.89;61.75;97846.36;1767940;79;26201;-80
2021/04/24 05:47:44;;;;;;;29.00;13.55;;;;;;;6.00;61.68;97844.16;1764096;79;26283;-80
2021/04/24 05:50:13;;;;;;;21.00;11.57;;;;;;;6.10;61.41;97838.09;1783951;79;25821;-80
2021/04/24 05:52:41;;;;;;;28.10;12.00;;;;;;;6.21;61.25;97834.69;1808225;78;25818;-80
2021/04/24 05:55:10;;;;;;;22.20;12.03;;;;;;;6.29;61.20;97841.35;1813883;78;28563;-80
2021/04/24 05:57:38;;;;;;;27.50;11.93;;;;;;;6.40;61.25;97816.87;1813890;78;25742;-80
2021/04/24 06:00:11;;;;;;;26.10;11.43;;;;;;;6.54;61.64;97818.78;1813814;78;25802;-80
2021/04/24 06:02:39;;;;;;;18.48;9.55;;;;;;;6.74;61.28;97816.00;1814008;78;25768;-80
2021/04/24 06:05:09;;;;;;;24.95;10.10;;;;;;;6.84;60.77;97808.55;1813889;78;26677;-80
2021/04/24 06:07:38;;;;;;;24.65;9.58;;;;;;;6.89;60.51;97802.62;1813937;78;27562;-79
2021/04/24 06:10:12;;;;;;;23.38;10.38;;;;;;;6.91;60.03;97803.80;1814181;78;25728;-80
2021/04/24 06:12:40;;;;;;;20.27;10.78;;;;;;;6.93;60.00;97803.11;1813906;78;25807;-80
2021/04/24 06:15:10;;;;;;;19.90;10.18;;;;;;;6.91;59.78;97799.77;1813816;78;25734;-80
2021/04/24 06:17:38;;;;;;;22.95;10.35;;;;;;;6.96;59.68;97804.11;1813941;78;25792;-80
2021/04/24 06:20:07;;;;;;;20.80;10.53;;;;;;;6.96;59.49;97800.92;1813969;78;27563;-79
2021/04/24 06:22:36;;;;;;;22.50;10.30;;;;;;;6.97;59.35;97799.91;1813902;78;26244;-78
2021/04/24 06:25:06;;;;;;;25.48;10.58;;;;;;;6.97;59.39;97803.94;1813888;78;25686;-79
2021/04/24 06:27:35;;;;;;;30.27;10.20;;;;;;;7.00;59.19;97800.06;1813833;78;26142;-80
2021/04/24 06:30:06;;;;;;;23.45;10.15;;;;;;;7.02;59.11;97796.16;1813950;78;25754;-79
2021/04/24 06:32:34;;;;;;;20.82;10.10;;;;;;;7.05;58.93;97802.52;1813586;78;27711;-80
2021/04/24 06:35:01;;;;;;;20.55;8.88;;;;;;;7.06;58.89;97796.64;1810982;78;26139;-79
2021/04/24 06:37:29;;;;;;;17.50;9.40;;;;;;;7.12;58.79;97795.94;1795978;77;25746;-78
2021/04/24 06:39:57;;;;;;;16.77;8.98;;;;;;;7.14;58.58;97790.69;1798300;77;25781;-79
2021/04/24 06:42:25;;;;;;;23.80;9.00;;;;;;;7.20;58.84;97795.87;1798284;77;25730;-80
2021/04/24 06:44:53;;;;;;;20.48;9.70;;;;;;;7.25;58.58;97792.11;1791224;78;27488;-80
2021/04/24 06:47:21;;;;;;;21.52;9.15;;;;;;;7.30;58.69;97787.55;1772094;79;25950;-80
2021/04/24 06:49:48;;;;;;;19.75;9.45;;;;;;;7.38;58.23;97783.44;1776519;77;25798;-80
2021/04/24 06:52:15;;;;;;;17.05;9.00;;;;;;;7.43;58.25;97792.64;1767428;79;25774;-80
2021/04/24 06:54:43;;;;;;;21.45;8.53;;;;;;;7.51;58.12;97791.20;1785445;79;25810;-80
2021/04/24 06:57:11;;;;;;;16.70;7.50;;;;;;;7.56;57.94;97796.05;1769562;79;27505;-80
2021/04/24 06:59:40;;;;;;;20.68;9.15;;;;;;;7.64;57.46;97797.80;1782285;79;25863;-80
2021/04/24 07:02:10;;;;;;;14.45;7.78;;;;;;;7.73;57.70;97796.19;1772647;79;25820;-80
2021/04/24 07:04:38;;;;;;;15.08;6.80;;;;;;;7.83;57.23;97792.75;1779992;79;25789;-80
2021/04/24 07:07:07;;;;;;;15.32;6.85;;;;;;;7.95;57.03;97796.64;1765879;78;25284;-80
2021/04/24 07:09:34;;;;;;;15.43;6.78;;;;;;;8.06;56.63;97789.13;1765822;79;28771;-80
2021/04/24 07:12:02;;;;;;;19.80;8.75;;;;;;;8.14;56.53;97789.86;1765686;78;26111;-80
2021/04/24 07:14:30;;;;;;;18.05;8.68;;;;;;;8.28;56.31;97785.48;1765879;78;25768;-78
2021/04/24 07:16:57;;;;;;;14.55;7.08;;;;;;;8.39;56.06;97782.85;1765709;78;25750;-80
2021/04/24 07:19:25;;;;;;;15.03;7.25;;;;;;;8.46;55.99;97793.17;1765861;78;25855;-79
2021/04/24 07:21:52;;;;;;;14.60;6.40;;;;;;;8.54;55.29;97795.27;1765835;78;27578;-80
2021/04/24 07:24:20;;;;;;;12.25;5.95;;;;;;;8.63;55.20;97791.94;1765896;78;26218;-79
2021/04/24 07:26:47;;;;;;;16.97;6.65;;;;;;;8.74;54.76;97787.41;1765950;78;25803;-81
2021/04/24 07:29:15;;;;;;;12.88;6.40;;;;;;;8.84;54.47;97787.09;1765909;78;26212;-80
2021/04/24 07:31:43;;;;;;;15.00;6.87;;;;;;;8.94;54.66;97781.70;1765826;78;25703;-79
2021/04/24 07:34:12;;;;;;;13.60;6.95;;;;;;;8.95;54.46;97796.84;1769581;78;28204;-80
2021/04/24 07:36:40;;;;;;;12.03;6.20;;;;;;;8.88;53.46;97786.52;1764495;79;26115;-80
2021/04/24 07:39:08;;;;;;;13.10;6.30;;;;;;;8.87;53.82;97795.63;1736961;81;25867;-79
2021/04/24 07:41:35;;;;;;;12.05;6.70;;;;;;;8.91;53.50;97794.23;1736992;81;25842;-80
2021/04/24 07:44:04;;;;;;;15.15;6.33;;;;;;;8.98;53.42;97799.16;1737023;81;26015;-80
2021/04/24 07:46:31;;;;;;;15.28;6.08;;;;;;;9.43;53.33;97799.77;1737089;81;28537;-80
2021/04/24 07:48:58;;;;;;;14.93;6.45;;;;;;;9.53;52.97;97804.34;1736959;81;26834;-81
2021/04/24 07:51:26;;;;;;;10.70;5.80;;;;;;;9.51;52.77;97806.38;1736959;81;25703;-81
2021/04/24 07:53:53;;;;;;;14.53;6.20;;;;;;;9.45;52.68;97808.50;1736940;81;25756;-80
2021/04/24 07:56:21;;;;;;;13.13;6.15;;;;;;;9.40;52.51;97806.91;1757937;81;25743;-81
2021/04/24 07:58:49;;;;;;;12.00;5.87;;;;;;;9.98;52.56;97800.81;1736945;80;28742;-81
2021/04/24 08:01:16;;;;;;;15.60;6.42;;;;;;;10.70;52.36;97805.77;1736972;81;25771;-81
2021/04/24 08:03:46;;;;;;;14.38;6.08;;;;;;;11.00;51.32;97798.98;1737029;81;25731;-81
2021/04/24 08:06:13;;;;;;;12.13;5.95;;;;;;;11.24;51.17;97796.73;1736924;81;25827;-81
2021/04/24 08:08:40;;;;;;;13.40;5.92;;;;;;;11.25;50.10;97797.05;1737012;81;26084;-81
2021/04/24 08:11:08;;;;;;;14.28;6.47;;;;;;;11.41;50.61;97799.36;1736973;81;27475;-81
2021/04/24 08:13:35;;;;;;;10.08;5.90;;;;;;;11.51;49.34;97797.91;1736888;81;26171;-80
2021/04/24 08:16:02;;;;;;;14.47;6.55;;;;;;;11.39;49.07;97798.73;1736846;81;25812;-81
2021/04/24 08:18:30;;;;;;;13.32;6.65;;;;;;;11.32;49.20;97801.45;1736867;81;26537;-82
2021/04/24 08:20:57;;;;;;;12.00;5.87;;;;;;;11.64;49.35;97798.43;1736917;81;25831;-79
2021/04/24 08:23:25;;;;;;;8.60;4.85;;;;;;;11.93;49.21;97799.91;1736978;81;27488;-81
2021/04/24 08:25:52;;;;;;;7.85;4.53;;;;;;;11.95;47.99;97797.00;1751222;81;25910;-82
2021/04/24 08:28:19;;;;;;;7.20;4.67;;;;;;;11.58;46.87;97801.98;1743261;80;26154;-80
2021/04/24 08:30:47;;;;;;;11.05;4.80;;;;;;;11.45;46.49;97795.22;1736953;81;25735;-82
2021/04/24 08:33:14;;;;;;;12.35;6.20;;;;;;;11.83;46.15;97803.56;1737074;81;25755;-81
2021/04/24 08:35:42;;;;;;;15.45;7.80;;;;;;;12.34;46.88;97799.59;1738958;81;27475;-81
2021/04/24 08:38:10;;;;;;;11.15;5.10;;;;;;;12.83;46.08;97791.37;1767568;78;25741;-81
2021/04/24 08:40:37;;;;;;;7.28;4.15;;;;;;;13.50;45.28;97798.92;1794636;78;26348;-82
2021/04/24 08:43:05;;;;;;;11.35;5.45;;;;;;;13.70;44.96;97789.25;1781551;79;26457;-82
2021/04/24 08:45:34;;;;;;;10.68;5.17;;;;;;;14.01;44.74;97791.88;1786742;78;25855;-78
2021/04/24 08:48:03;;;;;;;7.17;4.22;;;;;;;14.24;43.77;97793.13;1780841;78;27576;-80
2021/04/24 08:50:33;;;;;;;10.85;5.10;;;;;;;14.30;43.45;97790.86;1772316;78;26300;-81
2021/04/24 08:53:01;;;;;;;8.00;4.20;;;;;;;14.50;43.29;97787.41;1779970;78;25719;-81
2021/04/24 08:55:34;;;;;;;8.95;4.20;;;;;;;14.27;42.35;97786.70;1797463;78;25869;-81
2021/04/24 08:58:02;;;;;;;;;;;;;;;14.10;42.45;97783.46;1780887;78;25844;-81
2021/04/24 09:00:36;;;;;;;8.53;4.03;;;;;;;13.91;41.41;97792.91;1797012;78;27745;-82
2021/04/24 09:03:05;;;;;;;8.10;4.12;;;;;;;13.50;41.98;97785.88;1797450;78;26424;-81
2021/04/24 09:05:33;;;;;;;6.55;3.58;;;;;;;13.31;42.01;97787.15;1769656;79;25760;-81
2021/04/24 09:08:05;;;;;;;10.10;4.35;;;;;;;13.08;41.72;97781.44;1782578;78;26732;-82
2021/04/24 09:10:43;;;;;;;8.88;3.83;;;;;;;12.88;41.68;97779.38;1795810;78;26162;-82
2021/04/24 09:13:14;;;;;;;10.28;4.35;;;;;;;13.12;41.68;97771.83;1799616;78;27554;-81
2021/04/24 09:15:41;;;;;;;9.35;4.10;;;;;;;13.43;41.74;97780.49;1789361;78;26212;-80
2021/04/24 09:18:12;;;;;;;7.53;4.00;;;;;;;13.56;41.00;97778.20;1781833;78;25763;-81
2021/04/24 09:20:52;;;;;;;10.13;4.33;;;;;;;13.52;40.65;97775.65;1794769;78;25520;-80
2021/04/24 09:23:32;;;;;;;14.58;4.33;;;;;;;13.53;40.48;97770.50;1794978;78;25751;-82
2021/04/24 09:26:03;;;;;;;7.10;3.90;;;;;;;13.86;40.79;97764.28;1796106;78;28923;-81
2021/04/24 09:28:41;;;;;;;5.92;3.90;;;;;;;13.82;41.19;97764.41;1781239;78;25844;-82
2021/04/24 09:31:18;;;;;;;10.20;4.47;;;;;;;14.29;41.03;97756.61;1786874;78;25699;-82
2021/04/24 09:33:47;;;;;;;7.97;3.62;;;;;;;14.67;40.91;97749.08;1788432;78;25745;-81
2021/04/24 09:36:17;;;;;;;10.43;3.40;;;;;;;15.07;39.89;97746.64;1792950;78;25718;-82
2021/04/24 09:38:47;;;;;;;10.58;3.98;;;;;;;14.75;38.74;97748.75;1794671;78;28226;-81
2021/04/24 09:41:33;;;;;;;13.50;6.80;;;;;;;14.61;39.55;97749.97;1769946;78;25798;-82
2021/04/24 09:44:14;;;;;;;63.68;34.18;;;;;;;14.25;39.08;97756.78;1785388;78;25735;-81
2021/04/24 09:46:52;;;;;;;43.23;21.97;;;;;;;13.88;38.64;97745.90;1796746;78;26392;-81
2021/04/24 09:49:33;;;;;;;41.80;21.65;;;;;;;13.83;38.04;97751.67;1794678;78;25316;-81
2021/04/24 09:52:08;;;;;;;11.48;6.42;;;;;;;13.73;38.23;97754.91;1767841;78;27707;-80
2021/04/24 09:54:44;;;;;;;9.18;4.30;;;;;;;13.31;37.26;97737.52;1793439;78;25717;-82
2021/04/24 09:57:21;;;;;;;12.37;6.20;;;;;;;12.84;37.46;97732.08;1787965;78;25881;-81
2021/04/24 09:59:53;;;;;;;7.05;4.10;;;;;;;12.36;37.61;97741.18;1767829;78;26039;-81
2021/04/24 10:02:39;;;;;;;10.70;4.42;;;;;;;12.64;38.64;97737.63;1779113;78;25794;-81
2021/04/24 10:07:59;;;;;;;10.48;3.80;;;;;;;13.27;37.63;97733.08;1863991;76;25553;-82
2021/04/24 10:10:35;;;;;;;7.58;3.80;;;;;;;13.11;37.75;97733.58;1822975;77;25674;-81
2021/04/24 10:13:06;;;;;;;5.90;3.67;;;;;;;12.94;37.92;97734.62;1818832;77;27490;-82
2021/04/24 10:15:40;;;;;;;9.30;3.70;;;;;;;12.79;37.99;97727.86;1834619;77;26128;-81
2021/04/24 10:18:11;;;;;;;8.33;4.05;;;;;;;12.69;38.13;97732.37;1807261;77;25777;-81
2021/04/24 10:20:41;;;;;;;6.35;3.30;;;;;;;12.68;38.11;97729.91;1815504;77;25820;-81
2021/04/24 10:23:10;;;;;;;5.10;3.62;;;;;;;12.70;37.98;97731.84;1834852;77;25834;-81
2021/04/24 10:25:38;;;;;;;9.28;4.25;;;;;;;12.91;38.40;97731.02;1825601;77;27491;-82
2021/04/24 10:28:05;;;;;;;9.65;3.37;;;;;;;13.18;38.03;97715.93;1809444;77;25674;-82
2021/04/24 10:30:33;;;;;;;7.20;3.90;;;;;;;12.99;37.98;97718.55;1813494;77;26426;-82
2021/04/24 10:33:02;;;;;;;10.18;3.87;;;;;;;12.89;38.22;97719.56;1833448;77;25782;-82
2021/04/24 10:35:32;;;;;;;8.03;3.90;;;;;;;12.80;38.02;97713.27;1811303;77;25690;-81
2021/04/24 10:38:03;;;;;;;6.80;3.90;;;;;;;12.77;37.91;97710.98;1818826;77;27484;-79
2021/04/24 10:40:31;;;;;;;6.30;3.60;;;;;;;12.76;37.82;97720.16;1818792;77;25778;-81
2021/04/24 10:43:00;;;;;;;7.37;3.55;;;;;;;12.72;37.67;97714.34;1813598;77;25737;-81
2021/04/24 10:45:34;;;;;;;6.35;3.30;;;;;;;12.55;37.56;97711.33;1817060;77;25831;-80
2021/04/24 10:48:04;;;;;;;8.33;3.55;;;;;;;12.33;37.43;97716.72;1818902;77;25622;-81
2021/04/24 10:50:43;;;;;;;7.75;3.33;;;;;;;12.48;38.69;97706.45;1796286;77;27482;-82
2021/04/24 10:53:30;;;;;;;8.50;3.37;;;;;;;12.98;38.23;97701.15;1810065;77;26120;-82
2021/04/24 10:56:01;;;;;;;7.47;3.12;;;;;;;13.05;37.75;97691.08;1852349;77;25761;-80
2021/04/24 10:58:31;;;;;;;8.25;3.72;;;;;;;13.20;37.42;97703.83;1832471;77;25809;-81
2021/04/24 11:01:04;;;;;;;7.40;3.65;;;;;;;13.25;37.04;97699.94;1844087;77;25808;-81
2021/04/24 11:03:49;;;;;;;10.05;3.72;;;;;;;13.00;36.62;97703.12;1796374;77;28394;-81
2021/04/24 11:06:23;;;;;;;7.10;3.80;;;;;;;12.62;36.54;97693.15;1810800;77;26142;-81
2021/04/24 11:09:11;;;;;;;7.05;2.85;;;;;;;12.52;36.93;97692.80;1801095;77;26246;-79
2021/04/24 11:11:40;;;;;;;11.30;3.92;;;;;;;12.55;36.80;97696.44;1810163;77;25764;-82
2021/04/24 11:14:10;;;;;;;7.33;3.20;;;;;;;12.58;36.71;97693.79;1810181;77;25895;-82
2021/04/24 11:16:43;;;;;;;7.17;3.42;;;;;;;12.67;36.76;97688.97;1803756;77;27475;-81
2021/04/24 11:19:10;;;;;;;6.22;3.25;;;;;;;12.94;37.00;97686.37;1801538;77;26632;-82
2021/04/24 11:21:38;;;;;;;6.67;3.70;;;;;;;12.98;36.74;97680.30;1799418;77;26329;-82
2021/04/24 11:24:15;;;;;;;5.80;2.90;;;;;;;12.95;36.36;97676.67;1819350;77;25939;-81
2021/04/24 11:26:46;;;;;;;10.90;5.03;;;;;;;13.06;36.12;97690.55;1809630;77;25846;-81
2021/04/24 11:29:36;;;;;;;8.45;3.27;;;;;;;12.98;35.78;97688.95;1809854;77;27538;-79
2021/04/24 11:32:11;;;;;;;8.08;3.60;;;;;;;12.94;35.92;97684.49;1794895;77;26380;-80
2021/04/24 11:34:46;;;;;;;6.60;3.12;;;;;;;12.92;35.78;97683.08;1824800;77;25679;-81
2021/04/24 11:37:23;;;;;;;7.40;3.75;;;;;;;12.89;35.63;97679.44;1809567;77;25830;-80
2021/04/24 11:40:18;;;;;;;7.08;3.42;;;;;;;12.90;35.64;97681.11;1832921;77;25945;-81
2021/04/24 11:43:02;;;;;;;10.40;3.85;;;;;;;12.87;35.44;97685.59;1797569;77;27701;-80
2021/04/24 11:45:58;;;;;;;8.20;3.83;;;;;;;12.87;36.16;97684.24;1832525;77;26131;-81